Time;durP1;ratioP1;P1;durP2;ratioP2;P2;SDS_P1;SDS_P2;PMS_P1;PMS_P2;Temp;Humidity;BMP_temperature;BMP_pressure;BME280_temperature;BME280_humidity;BME280_pressure;Samples;Min_cycle;Max_cycle;Signal;HPM_P1;HPM_P2
2024/01/15 00:00:57;;;;;;;7.93;4.22;;;-1.80;99.90;;;;;;5248136;28;20028;-32
2024/01/15 00:03:28;;;;;;;7.60;3.88;;;-1.80;1.00;;;;;;5235744;28;20035;-32
2024/01/15 00:05:59;;;;;;;6.57;3.58;;;-1.80;1.00;;;;;;5268412;28;20019;-32
2024/01/15 00:08:35;;;;;;;6.15;2.80;;;-1.80;1.00;;;;;;5251472;28;20040;-32
2024/01/15 00:11:06;;;;;;;7.75;4.03;;;-1.70;1.00;;;;;;5266741;28;20015;-32
2024/01/15 00:13:42;;;;;;;4.63;2.60;;;-1.70;1.00;;;;;;5270159;28;20016;-32
2024/01/15 00:16:13;;;;;;;4.25;3.25;;;-1.60;99.90;;;;;;5247248;28;20224;-32
2024/01/15 00:18:49;;;;;;;5.10;3.28;;;-1.60;99.90;;;;;;5252643;28;20286;-32
2024/01/15 00:21:21;;;;;;;9.30;2.55;;;-1.70;1.00;;;;;;5269859;28;20036;-32
2024/01/15 00:23:52;;;;;;;8.80;4.07;;;-1.60;1.00;;;;;;5269482;28;20301;-32
2024/01/15 00:26:23;;;;;;;5.10;3.53;;;-1.70;99.90;;;;;;5269722;28;20028;-34
2024/01/15 00:28:54;;;;;;;5.03;2.78;;;-1.80;99.90;;;;;;5270353;28;20023;-32
2024/01/15 00:31:29;;;;;;;5.97;2.75;;;-1.80;99.90;;;;;;5265958;28;20031;-32
2024/01/15 00:34:03;;;;;;;9.25;3.83;;;-1.80;99.90;;;;;;5269658;28;20042;-32
2024/01/15 00:36:40;;;;;;;15.75;5.45;;;-1.90;99.90;;;;;;5269209;28;20038;-31
2024/01/15 00:39:11;;;;;;;9.18;4.70;;;-1.90;1.00;;;;;;5266662;28;20245;-31
2024/01/15 00:41:43;;;;;;;8.95;4.68;;;-1.90;1.00;;;;;;5234545;28;20044;-32
2024/01/15 00:44:17;;;;;;;6.60;3.30;;;-1.80;1.00;;;;;;5266993;28;20036;-33
2024/01/15 00:46:55;;;;;;;6.38;3.25;;;-1.60;1.00;;;;;;5264748;28;20028;-33
2024/01/15 00:49:30;;;;;;;6.28;3.03;;;-1.50;1.00;;;;;;5248691;28;20032;-33
2024/01/15 00:52:03;;;;;;;4.55;2.58;;;-1.30;99.90;;;;;;5234782;28;20427;-33
2024/01/15 00:54:39;;;;;;;18.67;3.03;;;-1.30;1.00;;;;;;5268867;28;20036;-33
2024/01/15 00:57:10;;;;;;;6.72;2.80;;;-1.20;1.00;;;;;;5248777;28;20317;-33
2024/01/15 00:59:44;;;;;;;4.68;3.28;;;-1.10;99.90;;;;;;5249308;28;20038;-33
2024/01/15 01:02:15;;;;;;;9.02;2.92;;;-1.00;1.00;;;;;;5246232;28;20028;-33
2024/01/15 01:04:46;;;;;;;3.83;2.50;;;-1.00;19.50;;;;;;5268483;28;20016;-33
2024/01/15 01:07:17;;;;;;;5.38;3.42;;;-0.90;99.90;;;;;;5268831;28;20024;-33
2024/01/15 01:09:51;;;;;;;6.18;3.40;;;-0.90;48.30;;;;;;5268487;28;20035;-32
2024/01/15 01:12:22;;;;;;;11.88;4.43;;;-0.90;99.90;;;;;;5268375;28;20034;-32
2024/01/15 01:14:54;;;;;;;5.88;3.17;;;-0.90;99.90;;;;;;5269206;28;20032;-32
2024/01/15 01:17:30;;;;;;;9.15;4.05;;;-0.80;1.00;;;;;;5265846;28;20028;-32
2024/01/15 01:20:06;;;;;;;7.32;3.90;;;-0.70;1.00;;;;;;5247004;28;20046;-32
2024/01/15 01:22:40;;;;;;;6.55;3.28;;;-0.70;1.00;;;;;;5249795;28;20024;-32
2024/01/15 01:25:11;;;;;;;7.22;3.22;;;-0.70;1.00;;;;;;5249972;28;20020;-34
2024/01/15 01:27:42;;;;;;;9.50;4.30;;;-0.70;99.90;;;;;;5268217;28;20207;-31
2024/01/15 01:30:16;;;;;;;9.88;4.10;;;-0.70;1.00;;;;;;5265568;28;20028;-31
2024/01/15 01:32:47;;;;;;;6.78;3.60;;;-0.70;99.90;;;;;;5267166;28;20239;-31
2024/01/15 01:35:18;;;;;;;6.45;3.90;;;-0.70;1.00;;;;;;5249350;28;20046;-32
2024/01/15 01:37:56;;;;;;;8.80;3.60;;;-0.80;1.00;;;;;;5268320;28;20024;-32
2024/01/15 01:40:27;;;;;;;6.53;3.45;;;-0.90;99.90;;;;;;5264936;28;20032;-32
2024/01/15 01:43:00;;;;;;;5.90;3.10;;;-0.90;99.90;;;;;;5268999;28;20213;-32
2024/01/15 01:45:34;;;;;;;8.77;4.28;;;-0.80;1.00;;;;;;5264685;28;20035;-31
2024/01/15 01:48:09;;;;;;;6.82;4.10;;;-0.80;1.00;;;;;;5250839;28;20198;-32
2024/01/15 01:50:40;;;;;;;7.25;3.30;;;-0.80;1.00;;;;;;5268309;28;20031;-32
2024/01/15 01:53:14;;;;;;;11.52;4.70;;;-0.90;99.90;;;;;;5269093;28;20162;-32
2024/01/15 01:55:48;;;;;;;6.97;3.42;;;-1.10;99.90;;;;;;5268230;28;20035;-32
2024/01/15 01:58:25;;;;;;;8.80;4.15;;;-1.20;1.00;;;;;;5247589;28;20032;-32
2024/01/15 02:00:58;;;;;;;8.00;3.33;;;-1.20;99.90;;;;;;5264662;28;20058;-32
2024/01/15 02:03:33;;;;;;;8.13;3.67;;;-1.20;1.00;;;;;;5267899;28;20346;-32
2024/01/15 02:06:06;;;;;;;6.25;3.70;;;-1.10;1.00;;;;;;5268919;28;20107;-32
2024/01/15 02:08:38;;;;;;;12.80;3.67;;;-0.90;99.90;;;;;;5249780;28;20027;-32
2024/01/15 02:11:10;;;;;;;9.50;4.15;;;-0.90;1.00;;;;;;5250526;28;20094;-32
2024/01/15 02:13:42;;;;;;;5.70;3.42;;;-1.00;1.00;;;;;;5267697;28;20611;-32
2024/01/15 02:16:15;;;;;;;6.80;3.65;;;-1.10;1.00;;;;;;5263885;28;20390;-32
2024/01/15 02:18:52;;;;;;;7.18;3.75;;;-1.00;99.90;;;;;;5267376;28;20322;-32
2024/01/15 02:21:23;;;;;;;6.63;3.83;;;-1.10;99.90;;;;;;5272200;28;20069;-32
2024/01/15 02:23:55;;;;;;;9.63;4.63;;;-1.30;1.00;;;;;;5271989;28;20024;-35
2024/01/15 02:26:26;;;;;;;4.68;2.83;;;-1.00;99.90;;;;;;5271476;28;20040;-32
2024/01/15 02:29:00;;;;;;;5.65;3.33;;;-0.90;1.00;;;;;;5272611;28;20296;-32
2024/01/15 02:31:36;;;;;;;5.10;2.90;;;-0.80;99.90;;;;;;5269303;28;20536;-32
2024/01/15 02:34:07;;;;;;;6.30;3.35;;;-0.80;1.00;;;;;;5267548;28;20036;-32
2024/01/15 02:36:40;;;;;;;6.15;2.95;;;-0.40;99.90;;;;;;5252873;28;20098;-32
2024/01/15 02:39:12;;;;;;;4.75;3.10;;;-0.20;99.90;;;;;;5253381;28;20040;-32
2024/01/15 02:41:43;;;;;;;4.93;3.25;;;-0.10;1.00;;;;;;5253478;28;20038;-32
2024/01/15 02:44:24;;;;;;;6.90;2.97;;;0.40;1.00;;;;;;5252342;28;20046;-32
2024/01/15 02:46:57;;;;;;;6.00;3.63;;;0.90;1.00;;;;;;5267835;28;20030;-32
2024/01/15 02:49:29;;;;;;;6.65;3.42;;;1.20;1.00;;;;;;5268097;28;20032;-32
2024/01/15 02:52:05;;;;;;;6.57;3.63;;;1.30;1.00;;;;;;5234122;28;20046;-31
2024/01/15 02:54:36;;;;;;;7.20;3.78;;;1.50;1.00;;;;;;5251742;28;20024;-31
2024/01/15 02:57:07;;;;;;;5.75;3.00;;;1.50;1.00;;;;;;5270783;28;20216;-32
2024/01/15 02:59:38;;;;;;;7.25;3.17;;;1.40;99.90;;;;;;5269414;28;20043;-32
2024/01/15 03:02:14;;;;;;;5.75;3.53;;;1.40;1.00;;;;;;5250105;28;20042;-31
2024/01/15 03:04:46;;;;;;;5.60;3.05;;;1.50;1.00;;;;;;5267243;28;20038;-32
2024/01/15 03:07:17;;;;;;;5.00;2.78;;;1.50;1.00;;;;;;5271571;28;20026;-31
2024/01/15 03:09:49;;;;;;;5.45;3.15;;;1.60;1.00;;;;;;5269322;28;20034;-31
2024/01/15 03:12:20;;;;;;;4.82;2.97;;;1.70;1.00;;;;;;5269696;28;20046;-31
2024/01/15 03:14:52;;;;;;;6.70;2.95;;;1.80;1.00;;;;;;5251260;28;20038;-32
2024/01/15 03:17:25;;;;;;;6.22;3.00;;;1.90;1.00;;;;;;5267112;28;20578;-32
2024/01/15 03:19:58;;;;;;;4.38;2.92;;;1.90;1.00;;;;;;5270728;28;20038;-32
2024/01/15 03:22:29;;;;;;;5.37;3.10;;;1.90;1.00;;;;;;5267261;28;20058;-34
2024/01/15 03:25:03;;;;;;;6.32;3.50;;;1.90;1.00;;;;;;5269478;28;20254;-32
2024/01/15 03:27:47;;;;;;;6.47;3.90;;;2.00;1.00;;;;;;5250336;28;20039;-32
2024/01/15 03:30:20;;;;;;;6.20;3.35;;;2.00;1.00;;;;;;5244200;28;20240;-32
2024/01/15 03:32:51;;;;;;;6.05;3.55;;;1.90;1.00;;;;;;5267620;28;20027;-31
2024/01/15 03:35:23;;;;;;;6.97;4.28;;;1.80;1.00;;;;;;5270121;28;20046;-31
2024/01/15 03:37:56;;;;;;;6.18;3.58;;;1.80;1.00;;;;;;5269286;28;20136;-31
2024/01/15 03:40:27;;;;;;;5.97;3.47;;;1.90;1.00;;;;;;5265455;28;20034;-31
2024/01/15 03:43:01;;;;;;;8.18;4.03;;;1.80;1.00;;;;;;5269511;28;20034;-31
2024/01/15 03:45:41;;;;;;;5.80;3.58;;;1.70;1.00;;;;;;5266827;28;20054;-31
2024/01/15 03:48:12;;;;;;;6.90;3.88;;;1.70;1.00;;;;;;5266643;28;20042;-32
2024/01/15 03:50:50;;;;;;;8.07;4.35;;;1.60;1.00;;;;;;5269884;28;20020;-31
2024/01/15 03:53:38;;;;;;;6.72;3.80;;;1.70;1.00;;;;;;5252291;28;20034;-32
2024/01/15 03:56:17;;;;;;;7.10;3.75;;;1.60;1.00;;;;;;5270926;28;20030;-34
2024/01/15 03:58:52;;;;;;;7.18;4.38;;;1.70;1.00;;;;;;5269299;28;20028;-31
2024/01/15 04:01:30;;;;;;;9.32;3.72;;;1.60;1.00;;;;;;5249435;28;20028;-31
2024/01/15 04:04:01;;;;;;;6.50;3.95;;;1.60;1.00;;;;;;5271163;28;20236;-31
2024/01/15 04:06:33;;;;;;;11.73;4.85;;;1.80;1.00;;;;;;5271063;28;20058;-32
2024/01/15 04:09:09;;;;;;;7.03;4.10;;;1.80;1.00;;;;;;5270977;28;20205;-32
2024/01/15 04:11:43;;;;;;;8.20;4.18;;;1.80;1.00;;;;;;5270002;28;20036;-32
2024/01/15 04:14:17;;;;;;;7.63;4.70;;;1.80;1.00;;;;;;5253738;28;20373;-32
2024/01/15 04:16:50;;;;;;;7.35;4.03;;;2.00;1.00;;;;;;5265149;28;20040;-32
2024/01/15 04:19:21;;;;;;;6.32;3.95;;;2.10;1.00;;;;;;5252088;28;20236;-32
2024/01/15 04:21:55;;;;;;;8.02;4.57;;;2.00;1.00;;;;;;5251940;28;20235;-32
2024/01/15 04:24:28;;;;;;;6.78;3.80;;;2.00;1.00;;;;;;5249487;28;20071;-33
2024/01/15 04:27:00;;;;;;;7.68;3.75;;;2.00;1.00;;;;;;5270406;28;20034;-32
2024/01/15 04:29:31;;;;;;;6.20;3.78;;;2.00;1.00;;;;;;5268732;28;20039;-32
2024/01/15 04:32:03;;;;;;;9.25;4.45;;;2.00;1.00;;;;;;5245804;28;20028;-32
2024/01/15 04:34:37;;;;;;;7.85;3.55;;;2.00;1.00;;;;;;5251996;28;20031;-32
2024/01/15 04:37:08;;;;;;;10.38;4.25;;;1.90;1.00;;;;;;5267936;28;20027;-32
2024/01/15 04:39:39;;;;;;;5.70;3.65;;;2.00;1.00;;;;;;5269825;28;20032;-32
2024/01/15 04:42:10;;;;;;;5.03;3.20;;;1.90;1.00;;;;;;5269078;28;20030;-32
2024/01/15 04:44:41;;;;;;;6.05;3.83;;;1.90;1.00;;;;;;5270865;28;20034;-32
2024/01/15 04:47:18;;;;;;;9.00;3.55;;;1.90;1.00;;;;;;5266317;28;20039;-31
2024/01/15 04:49:49;;;;;;;6.75;3.80;;;1.80;1.00;;;;;;5268264;28;20479;-32
2024/01/15 04:52:20;;;;;;;5.88;3.42;;;1.80;1.00;;;;;;5270484;28;20054;-31
2024/01/15 04:54:53;;;;;;;6.53;3.22;;;1.70;1.00;;;;;;5251301;28;20291;-34
2024/01/15 04:57:25;;;;;;;4.17;2.83;;;1.60;1.00;;;;;;5250877;28;20187;-32
2024/01/15 04:59:58;;;;;;;9.52;3.97;;;1.60;1.00;;;;;;5268894;28;20036;-32
2024/01/15 05:02:29;;;;;;;6.55;4.57;;;1.60;1.00;;;;;;5266519;28;20051;-32
2024/01/15 05:05:08;;;;;;;7.30;4.75;;;1.50;1.00;;;;;;5270149;28;20032;-32
2024/01/15 05:07:44;;;;;;;8.60;4.57;;;1.50;1.00;;;;;;5269725;28;20024;-32
2024/01/15 05:10:15;;;;;;;7.05;4.05;;;1.50;1.00;;;;;;5269712;28;20032;-32
2024/01/15 05:12:49;;;;;;;9.93;4.40;;;1.40;1.00;;;;;;5269831;28;20034;-31
2024/01/15 05:15:20;;;;;;;9.57;4.22;;;1.40;1.00;;;;;;5266538;28;20335;-31
2024/01/15 05:17:54;;;;;;;7.80;4.43;;;1.40;1.00;;;;;;5251156;28;20381;-31
2024/01/15 05:20:25;;;;;;;6.30;3.38;;;1.30;1.00;;;;;;5250468;28;20058;-31
2024/01/15 05:22:59;;;;;;;8.60;4.22;;;1.30;1.00;;;;;;5268086;28;20031;-32
2024/01/15 05:25:33;;;;;;;4.95;3.13;;;1.30;1.00;;;;;;5248886;28;20227;-31
2024/01/15 05:28:05;;;;;;;4.93;3.50;;;1.20;1.00;;;;;;5269534;28;20024;-31
2024/01/15 05:30:38;;;;;;;10.25;4.30;;;1.20;1.00;;;;;;5267612;28;20026;-31
2024/01/15 05:33:10;;;;;;;4.20;2.80;;;1.20;1.00;;;;;;5250826;28;20222;-30
2024/01/15 05:35:43;;;;;;;5.25;3.20;;;1.10;1.00;;;;;;5272069;28;20257;-31
2024/01/15 05:38:14;;;;;;;6.10;3.42;;;1.10;1.00;;;;;;5267429;28;20024;-32
2024/01/15 05:40:51;;;;;;;5.80;3.25;;;1.10;1.00;;;;;;5270040;28;20067;-31
2024/01/15 05:43:28;;;;;;;6.53;3.60;;;1.10;1.00;;;;;;5272216;28;20223;-31
2024/01/15 05:45:59;;;;;;;9.07;4.20;;;1.00;1.00;;;;;;5266820;28;20320;-32
2024/01/15 05:48:33;;;;;;;12.07;4.65;;;1.00;1.00;;;;;;5251736;28;20038;-32
2024/01/15 05:51:04;;;;;;;8.90;4.07;;;0.90;1.00;;;;;;5251642;28;20046;-32
2024/01/15 05:53:35;;;;;;;5.75;3.63;;;0.80;1.00;;;;;;5263509;28;20039;-34
2024/01/15 05:56:07;;;;;;;10.45;5.47;;;0.80;1.00;;;;;;5272165;28;20344;-31
2024/01/15 05:58:38;;;;;;;10.43;4.70;;;0.60;1.00;;;;;;5271819;28;20031;-31
2024/01/15 06:01:12;;;;;;;7.95;5.03;;;0.60;1.00;;;;;;5275799;28;20340;-31
2024/01/15 06:03:43;;;;;;;10.68;4.53;;;0.50;1.00;;;;;;5254414;28;20037;-32
2024/01/15 06:06:14;;;;;;;9.55;4.68;;;0.50;1.00;;;;;;5251629;28;20024;-32
2024/01/15 06:08:50;;;;;;;8.95;4.43;;;0.50;1.00;;;;;;5270315;28;20028;-32
2024/01/15 06:11:32;;;;;;;8.18;4.63;;;0.40;1.00;;;;;;5250584;28;20016;-31
2024/01/15 06:14:06;;;;;;;7.30;4.63;;;0.40;1.00;;;;;;5262738;28;20040;-31
2024/01/15 06:16:37;;;;;;;9.60;5.38;;;0.40;1.00;;;;;;5268169;28;20015;-31
2024/01/15 06:19:08;;;;;;;10.45;4.45;;;0.40;1.00;;;;;;5255118;28;20039;-31
2024/01/15 06:21:45;;;;;;;7.70;5.07;;;0.40;1.00;;;;;;5272069;28;20229;-31
2024/01/15 06:24:20;;;;;;;7.95;4.65;;;0.30;1.00;;;;;;5254769;28;20201;-31
2024/01/15 06:26:51;;;;;;;7.68;4.53;;;0.30;1.00;;;;;;5254853;28;20062;-31
2024/01/15 06:29:25;;;;;;;8.82;5.30;;;0.30;1.00;;;;;;5254966;28;20050;-31
2024/01/15 06:31:59;;;;;;;10.68;5.03;;;0.40;7.00;;;;;;5252780;28;20055;-31
2024/01/15 06:34:31;;;;;;;10.25;5.07;;;0.30;25.50;;;;;;5273798;28;20028;-30
2024/01/15 06:37:02;;;;;;;9.85;4.03;;;0.30;53.10;;;;;;5273175;28;20204;-32
2024/01/15 06:39:33;;;;;;;6.93;4.40;;;0.40;22.10;;;;;;5273441;28;20035;-32
2024/01/15 06:42:08;;;;;;;6.72;4.13;;;0.50;2.70;;;;;;5254916;28;20044;-32
2024/01/15 06:44:46;;;;;;;7.55;4.05;;;0.50;1.00;;;;;;5273957;28;20030;-32
2024/01/15 06:47:18;;;;;;;8.57;4.43;;;0.60;1.00;;;;;;5269855;28;20028;-32
2024/01/15 06:49:52;;;;;;;8.55;4.40;;;0.60;1.00;;;;;;5250518;28;20036;-32
2024/01/15 06:52:23;;;;;;;;;;;0.50;1.00;;;;;;5235631;28;20050;-34
2024/01/15 06:54:56;;;;;;;5.95;3.30;;;0.50;1.00;;;;;;5271506;28;19916;-31
2024/01/15 06:57:33;;;;;;;9.18;3.97;;;0.60;1.00;;;;;;5271519;28;20040;-31
2024/01/15 07:00:08;;;;;;;7.57;3.80;;;0.50;1.00;;;;;;5269164;28;20045;-31
2024/01/15 07:02:41;;;;;;;8.93;3.92;;;0.50;1.00;;;;;;5266807;28;20043;-31
2024/01/15 07:05:16;;;;;;;7.35;3.90;;;0.50;1.00;;;;;;5269015;28;20038;-32
2024/01/15 07:07:47;;;;;;;;;;;0.60;1.00;;;;;;5272131;28;20320;-32
2024/01/15 07:10:23;;;;;;;7.25;4.20;;;0.60;1.00;;;;;;5271903;28;20235;-31
2024/01/15 07:12:57;;;;;;;6.43;3.92;;;0.70;1.00;;;;;;5272319;28;20020;-31
2024/01/15 07:15:30;;;;;;;7.65;3.65;;;0.80;1.00;;;;;;5269641;28;20056;-31
2024/01/15 07:18:02;;;;;;;7.28;3.20;;;0.90;1.00;;;;;;5254454;28;20032;-32
2024/01/15 07:20:38;;;;;;;8.57;3.85;;;0.90;1.00;;;;;;5272969;28;20038;-31
2024/01/15 07:23:09;;;;;;;4.00;2.58;;;1.00;1.00;;;;;;5272284;28;20046;-32
2024/01/15 07:25:42;;;;;;;6.15;3.00;;;1.10;1.00;;;;;;5271738;28;20036;-33
2024/01/15 07:28:14;;;;;;;5.18;3.45;;;1.10;1.00;;;;;;5272402;28;20040;-31
2024/01/15 07:30:48;;;;;;;6.90;3.75;;;1.20;1.00;;;;;;5268512;28;20032;-31
2024/01/15 07:33:19;;;;;;;4.18;2.78;;;1.10;1.00;;;;;;5254545;28;20028;-31
2024/01/15 07:35:52;;;;;;;4.35;3.22;;;1.10;1.00;;;;;;5254321;28;20032;-31
2024/01/15 07:38:23;;;;;;;5.13;3.10;;;1.20;1.00;;;;;;5272211;28;20224;-31
2024/01/15 07:40:55;;;;;;;4.55;3.05;;;1.30;1.00;;;;;;5270067;28;20015;-31
2024/01/15 07:43:29;;;;;;;4.93;2.90;;;1.30;1.00;;;;;;5270789;28;20227;-31
2024/01/15 07:46:00;;;;;;;6.03;2.85;;;1.30;1.00;;;;;;5268730;28;20032;-31
2024/01/15 07:48:34;;;;;;;3.30;2.42;;;1.30;1.00;;;;;;5272147;28;20054;-31
2024/01/15 07:51:05;;;;;;;3.00;2.50;;;1.40;1.00;;;;;;5254001;28;20034;-35
2024/01/15 07:53:39;;;;;;;5.32;2.47;;;1.50;1.00;;;;;;5271749;28;20031;-30
2024/01/15 07:56:11;;;;;;;5.65;3.05;;;1.50;1.00;;;;;;5253394;28;20243;-30
2024/01/15 07:58:42;;;;;;;5.05;3.03;;;1.60;1.00;;;;;;5276174;28;20044;-31
2024/01/15 08:01:18;;;;;;;4.78;2.88;;;1.70;1.00;;;;;;5268003;28;20028;-31
2024/01/15 08:03:49;;;;;;;5.72;2.60;;;1.80;1.00;;;;;;5271509;28;20039;-31
2024/01/15 08:06:21;;;;;;;4.70;3.17;;;1.80;1.00;;;;;;5271871;28;20035;-31
2024/01/15 08:08:52;;;;;;;6.38;3.25;;;1.80;1.00;;;;;;5271583;28;20028;-32
2024/01/15 08:11:23;;;;;;;7.60;3.45;;;1.80;1.00;;;;;;5271597;28;20030;-32
2024/01/15 08:13:58;;;;;;;5.82;2.90;;;1.90;1.00;;;;;;5271759;28;20243;-32
2024/01/15 08:16:29;;;;;;;4.90;2.85;;;2.00;1.00;;;;;;5268359;28;20036;-33
2024/01/15 08:19:00;;;;;;;3.70;2.42;;;2.00;1.00;;;;;;5271700;28;20352;-32
2024/01/15 08:21:34;;;;;;;3.75;2.60;;;2.10;1.00;;;;;;5270939;28;20042;-32
2024/01/15 08:24:06;;;;;;;9.23;3.58;;;2.20;1.00;;;;;;5270722;28;20038;-32
2024/01/15 08:26:37;;;;;;;4.50;2.53;;;2.20;1.00;;;;;;5271092;28;20028;-32
2024/01/15 08:29:08;;;;;;;5.30;2.38;;;2.20;1.00;;;;;;5253136;28;20036;-32
2024/01/15 08:31:40;;;;;;;4.00;2.10;;;2.10;1.00;;;;;;5249404;28;20027;-32
2024/01/15 08:34:11;;;;;;;3.53;2.33;;;2.00;1.00;;;;;;5252648;28;20040;-32
2024/01/15 08:36:42;;;;;;;4.72;2.17;;;2.00;1.00;;;;;;5271045;28;20411;-32
2024/01/15 08:39:19;;;;;;;3.63;2.30;;;2.00;1.00;;;;;;5269545;28;20354;-32
2024/01/15 08:41:53;;;;;;;5.28;2.35;;;2.00;1.00;;;;;;5270867;28;20035;-31
2024/01/15 08:44:24;;;;;;;5.22;2.08;;;2.00;1.00;;;;;;5271444;28;20028;-32
2024/01/15 08:47:03;;;;;;;3.83;2.47;;;1.90;1.00;;;;;;5267059;28;20040;-31
2024/01/15 08:49:36;;;;;;;3.33;2.50;;;1.90;1.00;;;;;;5252741;28;20054;-34
2024/01/15 08:52:11;;;;;;;3.85;2.47;;;2.00;1.00;;;;;;5248415;28;20038;-32
2024/01/15 08:54:43;;;;;;;4.00;2.03;;;2.00;1.00;;;;;;5252816;28;20359;-32
2024/01/15 08:57:14;;;;;;;2.22;1.75;;;2.00;1.00;;;;;;5269728;28;20180;-32
2024/01/15 08:59:45;;;;;;;3.78;2.22;;;2.10;1.00;;;;;;5270313;28;20038;-31
2024/01/15 09:02:16;;;;;;;5.38;2.63;;;2.20;1.00;;;;;;5265893;28;20357;-31
2024/01/15 09:04:49;;;;;;;2.85;2.17;;;2.20;1.00;;;;;;5270857;28;20027;-31
2024/01/15 09:07:20;;;;;;;4.07;2.25;;;2.20;1.00;;;;;;5269823;28;20030;-32
2024/01/15 09:09:51;;;;;;;4.72;2.10;;;2.30;1.00;;;;;;5252124;28;20020;-32
2024/01/15 09:12:26;;;;;;;4.13;2.63;;;2.40;1.00;;;;;;5252428;28;20020;-32
2024/01/15 09:14:59;;;;;;;2.78;2.00;;;2.40;1.00;;;;;;5270669;28;20054;-34
2024/01/15 09:17:37;;;;;;;5.70;2.78;;;2.50;1.00;;;;;;5266687;28;20054;-32
2024/01/15 09:20:12;;;;;;;3.40;2.25;;;2.50;1.00;;;;;;5252343;28;20042;-32
2024/01/15 09:22:52;;;;;;;2.97;2.13;;;2.40;1.00;;;;;;5270465;28;20028;-32
2024/01/15 09:25:27;;;;;;;2.40;2.17;;;2.40;1.00;;;;;;5270133;28;20032;-32
2024/01/15 09:27:58;;;;;;;;;;;2.40;1.00;;;;;;5281408;28;20048;-32
2024/01/15 09:30:34;;;;;;;4.13;2.00;;;2.30;1.00;;;;;;5252917;28;20215;-32
2024/01/15 09:33:06;;;;;;;4.53;2.42;;;2.30;1.00;;;;;;5256289;28;20028;-32
2024/01/15 09:35:37;;;;;;;3.03;2.17;;;2.30;1.00;;;;;;5274455;28;20031;-32
2024/01/15 09:38:10;;;;;;;4.50;2.80;;;2.20;1.00;;;;;;5274767;28;20030;-32
2024/01/15 09:40:48;;;;;;;2.50;1.83;;;2.20;1.00;;;;;;5274984;28;20035;-31
2024/01/15 09:43:21;;;;;;;3.22;2.05;;;2.20;1.00;;;;;;5274153;28;20038;-32
2024/01/15 09:45:53;;;;;;;5.60;2.88;;;2.20;1.00;;;;;;5271441;28;20032;-32
2024/01/15 09:48:27;;;;;;;3.97;2.28;;;2.40;1.00;;;;;;5274156;28;20409;-36
2024/01/15 09:51:00;;;;;;;4.70;2.87;;;2.40;1.00;;;;;;5274249;28;20200;-31
2024/01/15 09:53:39;;;;;;;4.18;2.10;;;2.60;1.00;;;;;;5274052;28;20027;-31
2024/01/15 09:56:12;;;;;;;3.40;2.17;;;2.60;1.00;;;;;;5273135;28;20038;-31
2024/01/15 09:58:46;;;;;;;4.10;2.88;;;2.80;1.00;;;;;;5274183;28;20028;-32
2024/01/15 10:01:19;;;;;;;3.05;2.22;;;3.10;1.00;;;;;;5270641;28;20319;-32
2024/01/15 10:03:51;;;;;;;2.65;2.15;;;3.50;1.00;;;;;;5274524;28;20044;-32
2024/01/15 10:06:22;;;;;;;2.85;1.95;;;3.70;1.00;;;;;;5274032;28;20338;-32
2024/01/15 10:08:58;;;;;;;4.53;2.33;;;3.70;1.00;;;;;;5273960;28;20028;-32
2024/01/15 10:11:33;;;;;;;3.55;2.13;;;3.80;1.00;;;;;;5273367;28;20035;-32
2024/01/15 10:14:07;;;;;;;3.42;2.20;;;4.10;1.00;;;;;;5255660;28;20438;-32
2024/01/15 10:16:43;;;;;;;;;;;4.40;1.00;;;;;;5253282;28;20038;-31
2024/01/15 10:19:17;;;;;;;4.40;2.58;;;4.30;1.00;;;;;;5254948;28;20131;-31
2024/01/15 10:21:49;;;;;;;3.70;2.13;;;4.20;1.00;;;;;;5252871;28;20036;-35
2024/01/15 10:24:20;;;;;;;2.70;2.35;;;4.00;1.00;;;;;;5255518;28;20316;-33
2024/01/15 10:26:54;;;;;;;3.72;2.30;;;4.10;1.00;;;;;;5255751;28;20016;-33
2024/01/15 10:29:29;;;;;;;3.87;2.27;;;4.20;1.00;;;;;;5274137;28;20240;-33
2024/01/15 10:32:09;;;;;;;4.78;2.28;;;4.40;1.00;;;;;;5270685;28;20335;-33
2024/01/15 10:34:42;;;;;;;3.38;1.83;;;4.70;1.00;;;;;;5273669;28;20232;-33
2024/01/15 10:37:15;;;;;;;3.75;2.58;;;4.70;1.00;;;;;;5273429;28;20055;-33
2024/01/15 10:39:46;;;;;;;2.22;1.98;;;4.40;1.00;;;;;;5272532;28;20394;-32
2024/01/15 10:42:18;;;;;;;2.72;2.15;;;4.20;1.00;;;;;;5273419;28;20032;-32
2024/01/15 10:44:49;;;;;;;4.32;1.95;;;4.00;1.00;;;;;;5273423;28;20039;-32
2024/01/15 10:47:26;;;;;;;2.10;1.83;;;3.90;1.00;;;;;;5270235;28;20038;-32
2024/01/15 10:49:57;;;;;;;3.42;2.00;;;4.10;1.00;;;;;;5273176;28;20032;-32
2024/01/15 10:52:29;;;;;;;3.63;1.90;;;4.60;1.00;;;;;;5252732;28;20036;-32
2024/01/15 10:55:03;;;;;;;4.18;2.13;;;4.80;1.00;;;;;;5273082;28;20028;-32
2024/01/15 10:57:40;;;;;;;2.67;1.80;;;4.90;1.00;;;;;;5254479;28;20032;-32
2024/01/15 11:00:14;;;;;;;3.38;2.20;;;4.90;1.00;;;;;;5268176;28;20034;-33
2024/01/15 11:02:46;;;;;;;3.05;2.50;;;5.20;1.00;;;;;;5273266;28;20031;-33
2024/01/15 11:05:22;;;;;;;3.63;2.17;;;5.40;1.00;;;;;;5273011;28;20040;-33
2024/01/15 11:07:56;;;;;;;3.42;2.30;;;5.50;1.00;;;;;;5272796;28;20042;-33
2024/01/15 11:10:51;;;;;;;5.15;2.47;;;5.70;1.00;;;;;;5254716;28;20034;-33
2024/01/15 11:13:45;;;;;;;4.65;2.33;;;5.50;1.00;;;;;;5272471;28;20342;-32
2024/01/15 11:16:19;;;;;;;3.92;2.75;;;6.00;1.00;;;;;;5252856;28;20024;-32
2024/01/15 11:19:03;;;;;;;2.75;2.30;;;6.10;1.00;;;;;;5272668;28;20054;-32
2024/01/15 11:21:42;;;;;;;3.63;2.20;;;5.70;1.00;;;;;;5272988;28;20032;-32
2024/01/15 11:24:37;;;;;;;3.08;2.40;;;5.90;1.00;;;;;;5272460;28;20028;-31
2024/01/15 11:27:08;;;;;;;2.15;1.85;;;6.10;1.00;;;;;;5253407;28;20209;-31
2024/01/15 11:29:43;;;;;;;4.15;2.40;;;5.70;1.00;;;;;;5253867;28;20058;-32
2024/01/15 11:32:17;;;;;;;4.50;2.38;;;5.60;1.00;;;;;;5251908;28;20042;-32
2024/01/15 11:35:06;;;;;;;3.72;2.38;;;5.80;1.00;;;;;;5272350;28;20028;-32
2024/01/15 11:37:54;;;;;;;3.72;2.60;;;5.40;1.00;;;;;;5272320;28;20024;-33
2024/01/15 11:40:35;;;;;;;3.35;2.33;;;5.60;1.00;;;;;;5272163;28;20358;-33
2024/01/15 11:43:09;;;;;;;2.38;1.95;;;5.30;1.00;;;;;;5272128;28;20030;-31
2024/01/15 11:45:43;;;;;;;2.97;2.40;;;4.70;1.00;;;;;;5268095;28;20030;-35
2024/01/15 11:48:15;;;;;;;2.33;2.00;;;4.50;1.00;;;;;;5270973;28;20024;-32
2024/01/15 11:50:51;;;;;;;5.25;2.50;;;4.50;1.00;;;;;;5253495;28;20020;-32
2024/01/15 11:53:28;;;;;;;6.38;1.98;;;4.40;1.00;;;;;;5266000;28;20020;-32
2024/01/15 11:56:04;;;;;;;3.63;2.20;;;4.00;1.00;;;;;;5270684;28;20219;-32
2024/01/15 11:58:37;;;;;;;2.47;2.13;;;4.00;1.00;;;;;;5271304;28;20031;-32
2024/01/15 12:01:10;;;;;;;2.83;2.25;;;3.80;1.00;;;;;;5268537;28;20228;-32
2024/01/15 12:03:46;;;;;;;3.50;2.17;;;3.60;1.00;;;;;;5253612;28;20032;-32
2024/01/15 12:06:26;;;;;;;3.38;2.25;;;3.30;1.00;;;;;;5272356;28;20036;-32
2024/01/15 12:09:07;;;;;;;4.47;2.25;;;3.40;1.00;;;;;;5271332;28;20345;-32
2024/01/15 12:11:46;;;;;;;12.15;1.80;;;3.20;1.00;;;;;;5271389;28;20027;-31
2024/01/15 12:14:19;;;;;;;4.07;2.10;;;3.20;1.00;;;;;;5251566;28;20036;-31
2024/01/15 12:16:53;;;;;;;4.10;2.40;;;3.40;1.00;;;;;;5250175;28;20110;-31
2024/01/15 12:19:24;;;;;;;4.38;2.22;;;4.10;1.00;;;;;;5253358;28;20038;-36
2024/01/15 12:22:01;;;;;;;3.22;2.10;;;4.20;1.00;;;;;;5271421;28;20028;-31
2024/01/15 12:24:32;;;;;;;2.65;1.77;;;4.80;1.00;;;;;;5271083;28;20042;-31
2024/01/15 12:27:04;;;;;;;3.70;2.00;;;4.40;1.00;;;;;;5270823;28;20032;-31
2024/01/15 12:29:38;;;;;;;1.60;1.50;;;4.50;1.00;;;;;;5271284;28;20032;-33
2024/01/15 12:32:11;;;;;;;2.70;2.13;;;5.30;1.00;;;;;;5249502;28;20032;-33
2024/01/15 12:34:43;;;;;;;2.03;1.83;;;5.30;1.00;;;;;;5253078;28;20031;-30
2024/01/15 12:37:17;;;;;;;2.63;1.73;;;5.50;1.00;;;;;;5271123;28;20038;-32
2024/01/15 12:39:51;;;;;;;1.92;1.70;;;5.40;1.00;;;;;;5253512;28;20256;-32
2024/01/15 12:42:25;;;;;;;2.45;1.50;;;6.00;1.00;;;;;;5246248;28;20062;-32
2024/01/15 12:45:01;;;;;;;2.20;1.90;;;5.50;1.00;;;;;;5269413;28;20223;-33
2024/01/15 12:47:44;;;;;;;3.55;2.10;;;5.60;1.00;;;;;;5250352;28;20043;-32
2024/01/15 12:50:18;;;;;;;2.72;1.70;;;5.10;1.00;;;;;;5271027;28;20034;-32
2024/01/15 12:52:52;;;;;;;2.25;1.77;;;5.00;1.00;;;;;;5249997;28;20525;-36
2024/01/15 12:55:23;;;;;;;1.85;1.35;;;5.20;1.00;;;;;;5271123;28;20043;-31
2024/01/15 12:57:54;;;;;;;1.83;1.60;;;5.00;1.00;;;;;;5269826;28;20034;-30
2024/01/15 13:00:26;;;;;;;1.80;1.60;;;5.10;1.00;;;;;;5266862;28;20463;-32
2024/01/15 13:03:00;;;;;;;1.88;1.60;;;4.50;99.90;;;;;;5251632;28;20035;-33
2024/01/15 13:05:33;;;;;;;4.05;2.22;;;4.10;99.90;;;;;;5252533;28;20042;-32
2024/01/15 13:08:05;;;;;;;3.05;1.75;;;3.90;99.90;;;;;;5270418;28;20027;-33
2024/01/15 13:10:36;;;;;;;3.33;1.92;;;3.70;99.90;;;;;;5269468;28;20352;-32
2024/01/15 13:13:07;;;;;;;3.78;1.77;;;3.80;99.90;;;;;;5270913;28;20027;-32
2024/01/15 13:15:39;;;;;;;2.97;1.85;;;3.80;99.90;;;;;;5266819;28;20032;-32
2024/01/15 13:18:10;;;;;;;2.03;1.67;;;3.70;99.90;;;;;;5270444;28;20212;-35
2024/01/15 13:20:44;;;;;;;2.33;1.70;;;3.70;99.90;;;;;;5270375;28;20027;-32
2024/01/15 13:23:17;;;;;;;4.40;1.85;;;3.80;99.90;;;;;;5270670;28;20035;-33
2024/01/15 13:25:50;;;;;;;1.47;1.37;;;3.90;1.00;;;;;;5270604;28;20040;-33
2024/01/15 13:28:22;;;;;;;1.55;1.40;;;3.90;99.90;;;;;;5270160;28;20564;-33
2024/01/15 13:30:53;;;;;;;1.70;1.60;;;4.00;99.90;;;;;;5248492;28;20389;-32
2024/01/15 13:33:27;;;;;;;3.17;1.50;;;3.90;99.90;;;;;;5270336;28;20024;-32
2024/01/15 13:36:01;;;;;;;1.60;1.50;;;3.70;99.90;;;;;;5270576;28;20308;-32
2024/01/15 13:38:36;;;;;;;3.10;2.00;;;3.60;99.90;;;;;;5269914;28;20036;-33